Dades meteomassalio
Diari Summary for Juliol 3, 2017 Units:  Metric    English   Both
« Previous Day
Next Day »
Diari Semanal Mensual Anual Personalitzat
  Maxima: Minima: Mijana:
Temperatura: 31.9 °C 16.2 °C 24.1 °C
Rosada: 15.8 °C 9.3 °C 12.5 °C
Humitat: 71 % 30 % 50 %
Velocitat del vent: 25.9 km/h 0.0 km/h 8.3 km/h
Racha vent: 25.9 km/h - -
Vent:- - SSW
Pressio: 1023.6 hPa 1017.2 hPa -
Pluja: 0.0 mm    
Historical Graphs
 
 
Tabular Data for Juliol 3, 2017
Time Temperature Dew Point Pressure Wind Wind Speed Wind Gust Humidity Rainfall Rate (Hourly) solar Conditions
00:03 21.5 °C 9.4 °C 1022.6 hPa Calm     46 % 0.0 mm 0.0 W/m2 CLR
00:08 21.1 °C 9.3 °C 1022.6 hPa SW 1.6 km/h 1.6 km/h 47 % 0.0 mm 0.0 W/m2 CLR
00:13 20.8 °C 9.4 °C 1022.6 hPa Calm     48 % 0.0 mm 0.0 W/m2 CLR
00:18 20.6 °C 9.4 °C 1022.6 hPa WSW 3.7 km/h 3.7 km/h 49 % 0.0 mm 0.0 W/m2 CLR
00:23 20.5 °C 9.4 °C 1022.6 hPa WSW 6.4 km/h 6.4 km/h 49 % 0.0 mm 0.0 W/m2 CLR
00:28 20.6 °C 10.1 °C 1022.6 hPa West 7.4 km/h 7.4 km/h 51 % 0.0 mm 0.0 W/m2 CLR
00:33 20.7 °C 10.2 °C 1022.6 hPa West 1.9 km/h   51 % 0.0 mm 0.0 W/m2 CLR
00:38 20.8 °C 10.3 °C 1022.6 hPa West 5.6 km/h 5.6 km/h 51 % 0.0 mm 0.0 W/m2 CLR
00:43 20.9 °C 10.4 °C 1022.6 hPa West 5.6 km/h 5.6 km/h 51 % 0.0 mm 0.0 W/m2 CLR
00:48 20.9 °C 10.7 °C 1022.6 hPa WSW 9.7 km/h 9.7 km/h 52 % 0.0 mm 0.0 W/m2 CLR
00:53 20.9 °C 10.7 °C 1022.6 hPa West 9.3 km/h 9.3 km/h 52 % 0.0 mm 0.0 W/m2 CLR
00:58 20.8 °C 10.6 °C 1022.9 hPa WSW 11.3 km/h 11.3 km/h 52 % 0.0 mm 0.0 W/m2 CLR
01:03 20.8 °C 10.8 °C 1022.9 hPa WSW 5.6 km/h 5.6 km/h 53 % 0.0 mm 0.0 W/m2 CLR
01:08 20.7 °C 10.8 °C 1022.9 hPa WSW 5.6 km/h 5.6 km/h 53 % 0.0 mm 0.0 W/m2 CLR
01:13 20.7 °C 10.7 °C 1022.9 hPa West 7.4 km/h 7.4 km/h 53 % 0.0 mm 0.0 W/m2 CLR
01:18 20.6 °C 11.0 °C 1022.9 hPa NW 20.4 km/h 20.4 km/h 54 % 0.0 mm 0.0 W/m2 CLR
01:23 20.5 °C 10.9 °C 1022.9 hPa WNW 20.4 km/h 20.4 km/h 54 % 0.0 mm 0.0 W/m2 CLR
01:28 20.5 °C 10.9 °C 1022.9 hPa West 11.1 km/h 11.1 km/h 54 % 0.0 mm 0.0 W/m2 CLR
01:33 20.4 °C 10.8 °C 1022.9 hPa West 13.0 km/h 13.0 km/h 54 % 0.0 mm 0.0 W/m2 CLR
01:38 20.4 °C 11.1 °C 1022.9 hPa WSW 16.7 km/h 16.7 km/h 55 % 0.0 mm 0.0 W/m2 CLR
01:43 20.3 °C 11.0 °C 1022.9 hPa West 16.7 km/h 16.7 km/h 55 % 0.0 mm 0.0 W/m2 CLR
01:48 20.3 °C 10.9 °C 1022.9 hPa WNW 16.1 km/h 16.1 km/h 55 % 0.0 mm 0.0 W/m2 CLR
01:53 20.2 °C 10.8 °C 1022.9 hPa WNW 17.7 km/h 17.7 km/h 55 % 0.0 mm 0.0 W/m2 CLR
01:58 20.1 °C 11.1 °C 1022.9 hPa West 20.4 km/h 20.4 km/h 56 % 0.0 mm 0.0 W/m2 CLR
02:03 20.1 °C 11.1 °C 1022.9 hPa WNW 13.0 km/h 13.0 km/h 56 % 0.0 mm 0.0 W/m2 CLR
02:08 20.0 °C 10.9 °C 1022.9 hPa WNW 9.3 km/h 13.7 km/h 56 % 0.0 mm 0.0 W/m2 CLR
02:13 19.9 °C 10.9 °C 1022.9 hPa WSW 11.3 km/h 11.3 km/h 56 % 0.0 mm 0.0 W/m2 CLR
02:18 19.9 °C 10.8 °C 1022.9 hPa West 19.3 km/h 19.3 km/h 56 % 0.0 mm 0.0 W/m2 CLR
02:23 19.8 °C 11.1 °C 1022.9 hPa West 7.4 km/h 7.4 km/h 57 % 0.0 mm 0.0 W/m2 CLR
02:28 19.8 °C 11.0 °C 1022.9 hPa West 19.3 km/h 19.3 km/h 57 % 0.0 mm 0.0 W/m2 CLR
02:33 19.7 °C 10.9 °C 1022.9 hPa West 13.0 km/h 13.0 km/h 57 % 0.0 mm 0.0 W/m2 CLR
02:38 19.7 °C 10.9 °C 1022.9 hPa West 5.6 km/h 5.6 km/h 57 % 0.0 mm 0.0 W/m2 CLR
02:43 19.6 °C 11.1 °C 1022.9 hPa WSW 9.3 km/h 9.3 km/h 58 % 0.0 mm 0.0 W/m2 CLR
02:48 19.5 °C 11.0 °C 1022.9 hPa WSW 14.8 km/h 14.8 km/h 58 % 0.0 mm 0.0 W/m2 CLR
02:53 19.4 °C 10.9 °C 1022.9 hPa West 9.3 km/h 9.3 km/h 58 % 0.0 mm 0.0 W/m2 CLR
02:58 19.4 °C 11.2 °C 1022.9 hPa West 13.0 km/h 13.0 km/h 59 % 0.0 mm 0.0 W/m2 CLR
03:03 19.3 °C 11.1 °C 1022.9 hPa West 11.1 km/h 11.1 km/h 59 % 0.0 mm 0.0 W/m2 CLR
03:08 19.3 °C 11.1 °C 1022.9 hPa West 13.0 km/h 13.0 km/h 59 % 0.0 mm 0.0 W/m2 CLR
03:13 19.2 °C 11.0 °C 1022.9 hPa West 9.3 km/h 9.3 km/h 59 % 0.0 mm 0.0 W/m2 CLR
03:19 19.2 °C 10.9 °C 1022.9 hPa West 3.7 km/h 3.7 km/h 59 % 0.0 mm 0.0 W/m2 CLR
03:24 19.1 °C 11.2 °C 1022.9 hPa WNW 9.3 km/h 9.3 km/h 60 % 0.0 mm 0.0 W/m2 CLR
03:29 19.2 °C 11.2 °C 1022.9 hPa WNW 18.5 km/h 18.5 km/h 60 % 0.0 mm 0.0 W/m2 CLR
03:34 19.2 °C 11.3 °C 1022.9 hPa West 9.7 km/h 9.7 km/h 60 % 0.0 mm 0.0 W/m2 CLR
03:39 19.1 °C 11.2 °C 1022.9 hPa West 9.3 km/h 9.3 km/h 60 % 0.0 mm 0.0 W/m2 CLR
03:44 19.1 °C 11.2 °C 1022.9 hPa West 13.0 km/h 13.0 km/h 60 % 0.0 mm 0.0 W/m2 CLR
03:49 19.1 °C 11.3 °C 1022.9 hPa West 9.7 km/h 9.7 km/h 61 % 0.0 mm 0.0 W/m2 CLR
03:54 19.1 °C 11.3 °C 1022.9 hPa WSW 13.0 km/h 13.0 km/h 61 % 0.0 mm 0.0 W/m2 CLR
03:59 18.9 °C 11.3 °C 1022.9 hPa WSW 11.3 km/h 11.3 km/h 61 % 0.0 mm 0.0 W/m2 CLR
04:04 18.9 °C 11.4 °C 1022.9 hPa West 20.4 km/h 20.4 km/h 62 % 0.0 mm 0.0 W/m2 CLR
04:09 18.8 °C 11.3 °C 1022.9 hPa West 18.5 km/h 18.5 km/h 62 % 0.0 mm 0.0 W/m2 CLR
04:14 18.7 °C 11.2 °C 1022.9 hPa WNW 9.3 km/h 9.3 km/h 62 % 0.0 mm 0.0 W/m2 CLR
04:19 18.6 °C 11.4 °C 1022.9 hPa WNW 14.8 km/h 14.8 km/h 63 % 0.0 mm 0.0 W/m2 CLR
04:24 18.4 °C 11.2 °C 1022.9 hPa Calm     63 % 0.0 mm 0.0 W/m2 CLR
04:29 18.3 °C 11.2 °C 1022.6 hPa WNW 5.6 km/h 5.6 km/h 63 % 0.0 mm 0.0 W/m2 CLR
04:34 18.2 °C 11.3 °C 1022.6 hPa WNW 5.6 km/h 5.6 km/h 64 % 0.0 mm 0.0 W/m2 CLR
04:39 18.2 °C 11.3 °C 1022.6 hPa West 6.4 km/h 6.4 km/h 64 % 0.0 mm 0.0 W/m2 CLR
04:44 18.2 °C 11.3 °C 1022.9 hPa West 5.6 km/h 5.6 km/h 64 % 0.0 mm 0.0 W/m2 CLR
04:49 18.2 °C 11.3 °C 1022.9 hPa West 7.4 km/h 7.4 km/h 64 % 0.0 mm 0.0 W/m2 CLR
04:54 18.2 °C 11.3 °C 1022.9 hPa West 5.6 km/h 5.6 km/h 64 % 0.0 mm 0.0 W/m2 CLR
04:59 18.2 °C 11.3 °C 1022.9 hPa Calm     64 % 0.0 mm 0.0 W/m2 CLR
05:04 18.2 °C 11.3 °C 1022.9 hPa West 9.7 km/h 9.7 km/h 64 % 0.0 mm 0.0 W/m2 CLR
05:09 18.2 °C 11.3 °C 1022.9 hPa West 13.0 km/h 13.0 km/h 64 % 0.0 mm 0.0 W/m2 CLR
05:14 18.3 °C 11.3 °C 1022.6 hPa WSW 7.4 km/h 7.4 km/h 64 % 0.0 mm 0.0 W/m2 CLR
05:19 18.2 °C 11.3 °C 1022.6 hPa West 7.4 km/h 7.4 km/h 64 % 0.0 mm 0.0 W/m2 CLR
05:24 18.2 °C 11.2 °C 1022.6 hPa West 14.8 km/h 14.8 km/h 64 % 0.0 mm 0.0 W/m2 CLR
05:29 18.1 °C 11.2 °C 1022.6 hPa SW 7.4 km/h 7.4 km/h 64 % 0.0 mm 0.0 W/m2 CLR
05:34 18.1 °C 11.1 °C 1022.9 hPa Calm     64 % 0.0 mm 0.0 W/m2 CLR
05:39 17.8 °C 11.2 °C 1022.6 hPa Calm     65 % 0.0 mm 0.0 W/m2 CLR
05:44 17.7 °C 11.2 °C 1022.9 hPa Calm     66 % 0.0 mm 0.0 W/m2 CLR
05:49 17.4 °C 11.0 °C 1022.9 hPa Calm     66 % 0.0 mm 0.0 W/m2 CLR
05:54 17.3 °C 10.9 °C 1022.6 hPa Calm     66 % 0.0 mm 0.0 W/m2 CLR
05:59 17.1 °C 10.9 °C 1022.9 hPa Calm     67 % 0.0 mm 0.0 W/m2 CLR
06:04 17.1 °C 10.9 °C 1022.9 hPa Calm     67 % 0.0 mm 0.0 W/m2 CLR
06:09 17.0 °C 11.1 °C 1022.9 hPa West 4.8 km/h 4.8 km/h 68 % 0.0 mm 0.0 W/m2 CLR
06:14 17.1 °C 11.2 °C 1022.9 hPa Calm   0.2 km/h 68 % 0.0 mm 0.0 W/m2 CLR
06:19 17.1 °C 11.2 °C 1022.9 hPa Calm     68 % 0.0 mm 0.0 W/m2 CLR
06:24 17.1 °C 11.2 °C 1022.9 hPa Calm     68 % 0.0 mm 0.0 W/m2 OVC
06:29 17.0 °C 11.1 °C 1022.9 hPa Calm     68 % 0.0 mm 0.0 W/m2 OVC
06:34 16.8 °C 10.8 °C 1023.2 hPa Calm     68 % 0.0 mm 5.0 W/m2 OVC
06:39 16.6 °C 10.9 °C 1023.2 hPa Calm     69 % 0.0 mm 7.0 W/m2 BKN
06:44 16.4 °C 10.9 °C 1023.2 hPa Calm     70 % 0.0 mm 9.0 W/m2 BKN
06:49 16.3 °C 10.8 °C 1023.2 hPa Calm     70 % 0.0 mm 11.0 W/m2 BKN
06:54 16.2 °C 10.7 °C 1023.2 hPa Calm     70 % 0.0 mm 12.0 W/m2 BKN
06:59 16.2 °C 10.9 °C 1023.2 hPa Calm     71 % 0.0 mm 14.0 W/m2 BKN
07:04 16.3 °C 11.0 °C 1023.2 hPa Calm     71 % 0.0 mm 18.0 W/m2 BKN
07:09 16.4 °C 11.1 °C 1023.2 hPa Calm     71 % 0.0 mm 23.0 W/m2 BKN
07:14 16.5 °C 11.0 °C 1023.2 hPa West 5.6 km/h 5.6 km/h 70 % 0.0 mm 37.0 W/m2 BKN
07:19 16.7 °C 11.2 °C 1023.2 hPa Calm     70 % 0.0 mm 47.0 W/m2 SCT
07:24 16.9 °C 11.2 °C 1023.2 hPa West 5.6 km/h 5.6 km/h 69 % 0.0 mm 58.0 W/m2 SCT
07:29 17.2 °C 11.4 °C 1023.6 hPa West 7.4 km/h 7.4 km/h 69 % 0.0 mm 69.0 W/m2 FEW
07:34 17.3 °C 11.4 °C 1023.6 hPa WSW 9.3 km/h 9.3 km/h 68 % 0.0 mm 84.0 W/m2 FEW
07:39 17.6 °C 11.3 °C 1023.6 hPa SW 7.4 km/h 7.4 km/h 67 % 0.0 mm 98.0 W/m2 FEW
07:44 17.7 °C 11.4 °C 1023.6 hPa Calm     67 % 0.0 mm 114.0 W/m2 CLR
07:49 17.8 °C 11.6 °C 1023.6 hPa SW 9.3 km/h 9.3 km/h 67 % 0.0 mm 128.0 W/m2 CLR
07:54 17.9 °C 11.7 °C 1023.6 hPa SSW 5.6 km/h 5.6 km/h 67 % 0.0 mm 144.0 W/m2 CLR
07:59 18.1 °C 11.6 °C 1023.6 hPa WNW 7.4 km/h 7.4 km/h 66 % 0.0 mm 165.0 W/m2 CLR
08:04 18.2 °C 11.7 °C 1023.6 hPa WNW 18.5 km/h 18.5 km/h 66 % 0.0 mm 181.0 W/m2 CLR
08:09 18.3 °C 11.6 °C 1023.6 hPa West 14.5 km/h 14.5 km/h 65 % 0.0 mm 197.0 W/m2 CLR
08:14 18.4 °C 11.7 °C 1023.6 hPa WNW 3.7 km/h 3.7 km/h 65 % 0.0 mm 213.0 W/m2 CLR
08:19 18.6 °C 11.7 °C 1023.6 hPa West 3.7 km/h 4.8 km/h 64 % 0.0 mm 229.0 W/m2 CLR
08:24 18.7 °C 11.7 °C 1023.6 hPa West 9.3 km/h 9.3 km/h 64 % 0.0 mm 246.0 W/m2 CLR
08:29 18.7 °C 11.8 °C 1023.6 hPa WSW 11.3 km/h 11.3 km/h 64 % 0.0 mm 262.0 W/m2 CLR
08:34 18.8 °C 11.9 °C 1023.6 hPa West 9.3 km/h 9.3 km/h 64 % 0.0 mm 276.0 W/m2 CLR
08:39 18.9 °C 11.7 °C 1023.6 hPa West 18.5 km/h 18.5 km/h 63 % 0.0 mm 294.0 W/m2 CLR
08:44 19.1 °C 11.8 °C 1023.6 hPa NW 22.2 km/h 22.2 km/h 63 % 0.0 mm 308.0 W/m2 CLR
08:49 19.2 °C 11.7 °C 1023.6 hPa West 24.1 km/h 24.1 km/h 62 % 0.0 mm 322.0 W/m2 CLR
08:54 19.2 °C 11.8 °C 1023.6 hPa WNW 18.5 km/h 18.5 km/h 62 % 0.0 mm 338.0 W/m2 CLR
08:59 19.4 °C 11.7 °C 1023.6 hPa WNW 18.5 km/h 18.5 km/h 61 % 0.0 mm 355.0 W/m2 CLR
09:04 19.5 °C 11.8 °C 1023.6 hPa WNW 12.9 km/h 12.9 km/h 61 % 0.0 mm 369.0 W/m2 CLR
09:09 19.7 °C 11.9 °C 1023.6 hPa West 11.3 km/h 11.3 km/h 61 % 0.0 mm 385.0 W/m2 CLR
09:14 19.7 °C 12.0 °C 1023.6 hPa WNW 5.6 km/h 5.6 km/h 61 % 0.0 mm 399.0 W/m2 CLR
09:19 20.1 °C 12.1 °C 1023.6 hPa West 7.4 km/h 7.4 km/h 60 % 0.0 mm 413.0 W/m2 CLR
09:24 20.3 °C 12.1 °C 1023.6 hPa NNW 11.1 km/h 11.4 km/h 59 % 0.0 mm 431.0 W/m2 CLR
09:30 20.6 °C 12.3 °C 1023.6 hPa NW 20.4 km/h 20.4 km/h 59 % 0.0 mm 446.0 W/m2 CLR
09:35 20.8 °C 12.2 °C 1023.6 hPa NW 18.5 km/h 18.5 km/h 58 % 0.0 mm 461.0 W/m2 CLR
09:40 21.1 °C 12.2 °C 1023.6 hPa NW 16.1 km/h 16.1 km/h 57 % 0.0 mm 475.0 W/m2 CLR
09:45 21.0 °C 12.2 °C 1023.6 hPa NW 25.9 km/h 25.9 km/h 57 % 0.0 mm 492.0 W/m2 CLR
09:50 21.1 °C 12.3 °C 1023.2 hPa NW 24.1 km/h 24.1 km/h 57 % 0.0 mm 506.0 W/m2 CLR
09:55 21.2 °C 12.1 °C 1023.2 hPa WNW 25.9 km/h 25.9 km/h 56 % 0.0 mm 520.0 W/m2 CLR
10:00 21.4 °C 12.2 °C 1023.2 hPa NW 17.7 km/h 17.7 km/h 56 % 0.0 mm 534.0 W/m2 CLR
10:05 21.6 °C 12.4 °C 1023.2 hPa WNW 9.3 km/h 9.3 km/h 56 % 0.0 mm 548.0 W/m2 CLR
10:10 21.8 °C 12.4 °C 1023.2 hPa NW 18.5 km/h 18.5 km/h 55 % 0.0 mm 564.0 W/m2 CLR
10:12 22.0 °C 12.6 °C 1023.2 hPa NW 16.7 km/h 16.7 km/h 55 % 0.0 mm 573.0 W/m2 CLR
10:17 21.9 °C 12.2 °C 1023.2 hPa NW 18.5 km/h 18.5 km/h 54 % 0.0 mm 587.0 W/m2 CLR
10:22 22.1 °C 12.4 °C 1023.2 hPa WNW 16.7 km/h 16.7 km/h 54 % 0.0 mm 601.0 W/m2 CLR
10:28 22.3 °C 12.5 °C 1022.9 hPa NNW 7.4 km/h 7.4 km/h 54 % 0.0 mm 613.0 W/m2 CLR
10:33 22.6 °C 12.5 °C 1022.9 hPa NW 3.7 km/h 3.7 km/h 53 % 0.0 mm 629.0 W/m2 CLR
10:38 22.7 °C 12.6 °C 1022.9 hPa WNW 5.6 km/h 5.6 km/h 53 % 0.0 mm 643.0 W/m2 CLR
10:43 22.7 °C 12.3 °C 1022.9 hPa NNW 18.5 km/h 18.5 km/h 52 % 0.0 mm 656.0 W/m2 CLR
10:48 22.7 °C 12.3 °C 1022.9 hPa NW 18.5 km/h 18.5 km/h 52 % 0.0 mm 668.0 W/m2 CLR
10:53 22.8 °C 12.4 °C 1022.6 hPa West 16.7 km/h 16.7 km/h 52 % 0.0 mm 682.0 W/m2 CLR
10:58 23.2 °C 12.4 °C 1022.9 hPa West 18.5 km/h 18.5 km/h 51 % 0.0 mm 694.0 W/m2 CLR
11:03 23.2 °C 12.8 °C 1022.6 hPa NW 20.4 km/h 20.4 km/h 52 % 0.0 mm 707.0 W/m2 CLR
11:08 23.5 °C 12.5 °C 1022.6 hPa NW 14.8 km/h 14.8 km/h 50 % 0.0 mm 717.0 W/m2 CLR
11:13 23.7 °C 12.6 °C 1022.6 hPa NNW 18.5 km/h 18.5 km/h 50 % 0.0 mm 728.0 W/m2 CLR
11:18 23.6 °C 12.6 °C 1022.6 hPa North 5.6 km/h 5.6 km/h 50 % 0.0 mm 740.0 W/m2 CLR
11:23 23.9 °C 12.8 °C 1022.6 hPa West 7.4 km/h 7.4 km/h 50 % 0.0 mm 751.0 W/m2 CLR
11:28 24.1 °C 12.7 °C 1022.6 hPa WNW 18.5 km/h 18.5 km/h 49 % 0.0 mm 763.0 W/m2 CLR
11:33 24.0 °C 12.6 °C 1022.6 hPa NW 18.5 km/h 18.5 km/h 49 % 0.0 mm 772.0 W/m2 CLR
11:38 24.1 °C 12.7 °C 1022.2 hPa WNW 7.4 km/h 7.4 km/h 49 % 0.0 mm 786.0 W/m2 CLR
11:43 24.0 °C 12.6 °C 1022.2 hPa NW 18.5 km/h 18.5 km/h 49 % 0.0 mm 796.0 W/m2 CLR
11:48 23.9 °C 12.6 °C 1022.2 hPa WSW 7.4 km/h 7.4 km/h 49 % 0.0 mm 803.0 W/m2 CLR
11:53 24.3 °C 12.6 °C 1022.2 hPa WNW 20.4 km/h 20.4 km/h 48 % 0.0 mm 812.0 W/m2 CLR
11:58 24.6 °C 12.8 °C 1022.2 hPa NNW 18.5 km/h 18.5 km/h 48 % 0.0 mm 824.0 W/m2 CLR
12:03 24.7 °C 12.6 °C 1022.2 hPa West 12.9 km/h 12.9 km/h 47 % 0.0 mm 831.0 W/m2 CLR
12:08 24.7 °C 12.9 °C 1022.2 hPa NNW 18.5 km/h 18.5 km/h 48 % 0.0 mm 838.0 W/m2 CLR
12:13 25.3 °C 12.5 °C 1021.9 hPa WNW 20.4 km/h 20.4 km/h 45 % 0.0 mm 849.0 W/m2 CLR
12:18 25.0 °C 12.6 °C 1021.9 hPa West 14.8 km/h 14.8 km/h 46 % 0.0 mm 856.0 W/m2 CLR
12:23 24.9 °C 12.8 °C 1021.9 hPa NNW 14.8 km/h 14.8 km/h 47 % 0.0 mm 865.0 W/m2 CLR
12:28 25.2 °C 12.8 °C 1021.9 hPa North 5.6 km/h 5.6 km/h 46 % 0.0 mm 872.0 W/m2 CLR
12:33 25.6 °C 12.8 °C 1021.9 hPa Calm     45 % 0.0 mm 881.0 W/m2 CLR
12:38 26.0 °C 12.8 °C 1021.9 hPa NE 5.6 km/h 5.6 km/h 44 % 0.0 mm 886.0 W/m2 CLR
12:43 26.0 °C 12.8 °C 1021.9 hPa WSW 7.4 km/h 7.4 km/h 44 % 0.0 mm 895.0 W/m2 CLR
12:48 26.2 °C 12.6 °C 1021.9 hPa NW 7.4 km/h 7.4 km/h 43 % 0.0 mm 895.0 W/m2 CLR
12:53 26.3 °C 12.8 °C 1021.6 hPa NW 18.5 km/h 18.5 km/h 43 % 0.0 mm 904.0 W/m2 CLR
12:58 26.3 °C 12.7 °C 1021.6 hPa North 13.0 km/h 13.0 km/h 43 % 0.0 mm 911.0 W/m2 CLR
13:03 26.3 °C 12.8 °C 1021.6 hPa WSW 3.7 km/h 3.7 km/h 43 % 0.0 mm 914.0 W/m2 CLR
13:08 26.5 °C 12.6 °C 1021.6 hPa NE 3.7 km/h 3.7 km/h 42 % 0.0 mm 919.0 W/m2 CLR
13:13 26.8 °C 12.8 °C 1021.6 hPa WNW 7.4 km/h 7.4 km/h 42 % 0.0 mm 925.0 W/m2 CLR
13:18 27.1 °C 12.7 °C 1021.6 hPa NW 7.4 km/h   41 % 0.0 mm 928.0 W/m2 CLR
13:23 27.4 °C 12.9 °C 1021.6 hPa NNW 16.7 km/h 16.7 km/h 41 % 0.0 mm 930.0 W/m2 CLR
13:28 27.4 °C 12.6 °C 1021.6 hPa NNW 16.7 km/h 16.7 km/h 40 % 0.0 mm 935.0 W/m2 CLR
13:33 27.2 °C 12.4 °C 1021.2 hPa Calm     40 % 0.0 mm 937.0 W/m2 CLR
13:38 27.3 °C 12.6 °C 1021.2 hPa Calm     40 % 0.0 mm 940.0 W/m2 CLR
13:43 27.6 °C 12.7 °C 1021.2 hPa North 7.4 km/h 7.4 km/h 40 % 0.0 mm 946.0 W/m2 CLR
13:48 27.8 °C 12.6 °C 1021.2 hPa ENE 8.0 km/h 8.0 km/h 39 % 0.0 mm 944.0 W/m2 CLR
13:53 27.8 °C 12.6 °C 1020.9 hPa Calm     39 % 0.0 mm 947.0 W/m2 CLR
13:58 27.9 °C 12.7 °C 1020.9 hPa NNE 18.5 km/h 18.5 km/h 39 % 0.0 mm 944.0 W/m2 CLR
14:03 28.1 °C 12.8 °C 1020.9 hPa NNE 3.7 km/h   39 % 0.0 mm 946.0 W/m2 CLR
14:08 28.2 °C 12.5 °C 1020.9 hPa North 9.3 km/h 9.3 km/h 38 % 0.0 mm 947.0 W/m2 CLR
14:13 28.2 °C 12.9 °C 1020.5 hPa Calm     39 % 0.0 mm 947.0 W/m2 CLR
14:18 28.7 °C 12.9 °C 1020.5 hPa Calm     38 % 0.0 mm 944.0 W/m2 CLR
14:23 28.7 °C 12.6 °C 1020.5 hPa NNW 13.0 km/h 13.0 km/h 37 % 0.0 mm 946.0 W/m2 CLR
14:28 28.4 °C 12.8 °C 1020.5 hPa North 4.8 km/h 4.8 km/h 38 % 0.0 mm 942.0 W/m2 CLR
14:33 28.4 °C 12.3 °C 1020.5 hPa North 5.6 km/h 5.6 km/h 37 % 0.0 mm 940.0 W/m2 CLR
14:38 28.4 °C 12.3 °C 1020.2 hPa Calm     37 % 0.0 mm 937.0 W/m2 CLR
14:43 28.9 °C 12.7 °C 1020.2 hPa East 1.9 km/h   37 % 0.0 mm 935.0 W/m2 CLR
14:48 29.3 °C 12.7 °C 1020.2 hPa NE 5.6 km/h   36 % 0.0 mm 935.0 W/m2 CLR
14:53 29.4 °C 12.4 °C 1020.2 hPa Calm     35 % 0.0 mm 928.0 W/m2 CLR
14:58 29.2 °C 12.2 °C 1020.2 hPa Calm     35 % 0.0 mm 925.0 W/m2 CLR
15:03 29.6 °C 12.9 °C 1019.9 hPa NNE 7.4 km/h 7.4 km/h 36 % 0.0 mm 925.0 W/m2 CLR
15:08 29.8 °C 12.7 °C 1019.9 hPa Calm     35 % 0.0 mm 918.0 W/m2 CLR
15:13 30.1 °C 12.9 °C 1019.9 hPa NNE 9.3 km/h 9.3 km/h 35 % 0.0 mm 911.0 W/m2 CLR
15:18 30.0 °C 12.4 °C 1019.9 hPa ENE 9.3 km/h 9.3 km/h 34 % 0.0 mm 905.0 W/m2 CLR
15:23 29.8 °C 12.2 °C 1019.5 hPa NNE 5.6 km/h 5.6 km/h 34 % 0.0 mm 900.0 W/m2 CLR
15:28 29.8 °C 12.2 °C 1019.5 hPa Calm     34 % 0.0 mm 893.0 W/m2 CLR
15:33 29.9 °C 12.3 °C 1019.5 hPa East 4.8 km/h 4.8 km/h 34 % 0.0 mm 888.0 W/m2 CLR
15:38 30.0 °C 12.4 °C 1019.5 hPa NE 7.4 km/h 7.4 km/h 34 % 0.0 mm 881.0 W/m2 CLR
15:43 30.2 °C 12.6 °C 1019.2 hPa ENE 13.0 km/h 13.0 km/h 34 % 0.0 mm 874.0 W/m2 CLR
15:48 30.4 °C 12.8 °C 1019.2 hPa Calm     34 % 0.0 mm 865.0 W/m2 CLR
15:53 30.5 °C 12.9 °C 1019.2 hPa NE 6.4 km/h 6.4 km/h 34 % 0.0 mm 858.0 W/m2 CLR
15:58 30.6 °C 12.9 °C 1019.2 hPa ENE 8.0 km/h 8.0 km/h 34 % 0.0 mm 851.0 W/m2 CLR
16:03 30.6 °C 12.4 °C 1019.2 hPa ENE 6.4 km/h 6.4 km/h 33 % 0.0 mm 842.0 W/m2 CLR
16:08 30.6 °C 12.5 °C 1019.2 hPa ENE 5.6 km/h 5.6 km/h 33 % 0.0 mm 831.0 W/m2 CLR
16:13 30.5 °C 12.9 °C 1018.8 hPa East 3.7 km/h 4.0 km/h 34 % 0.0 mm 823.0 W/m2 CLR
16:18 30.3 °C 12.7 °C 1018.8 hPa Calm     34 % 0.0 mm 800.0 W/m2 CLR
16:23 30.7 °C 13.1 °C 1018.8 hPa NE 16.7 km/h 16.7 km/h 34 % 0.0 mm 803.0 W/m2 CLR
16:28 30.8 °C 12.7 °C 1018.8 hPa NE 13.0 km/h 13.0 km/h 33 % 0.0 mm 793.0 W/m2 CLR
16:33 30.6 °C 12.9 °C 1018.8 hPa ENE 9.3 km/h 9.3 km/h 34 % 0.0 mm 786.0 W/m2 CLR
16:38 30.5 °C 12.9 °C 1018.8 hPa NE 5.6 km/h 5.6 km/h 34 % 0.0 mm 773.0 W/m2 CLR
16:43 30.6 °C 12.9 °C 1018.8 hPa ENE 16.7 km/h 16.7 km/h 34 % 0.0 mm 761.0 W/m2 CLR
16:48 30.7 °C 12.6 °C 1018.8 hPa ENE 5.6 km/h 5.6 km/h 33 % 0.0 mm 749.0 W/m2 CLR
16:53 30.8 °C 12.7 °C 1018.5 hPa ENE 5.6 km/h 5.6 km/h 33 % 0.0 mm 740.0 W/m2 CLR
16:58 31.0 °C 12.8 °C 1018.5 hPa Calm     33 % 0.0 mm 726.0 W/m2 CLR
17:03 31.3 °C 12.6 °C 1018.5 hPa ENE 5.6 km/h 5.6 km/h 32 % 0.0 mm 714.0 W/m2 CLR
17:08 31.3 °C 12.7 °C 1018.5 hPa East 9.3 km/h 9.3 km/h 32 % 0.0 mm 705.0 W/m2 CLR
17:13 31.3 °C 12.7 °C 1018.5 hPa NNE 7.4 km/h   32 % 0.0 mm 693.0 W/m2 CLR
17:18 31.4 °C 12.8 °C 1018.5 hPa ENE 1.9 km/h   32 % 0.0 mm 680.0 W/m2 CLR
17:23 31.4 °C 12.8 °C 1018.5 hPa Calm     32 % 0.0 mm 666.0 W/m2 CLR
17:28 31.1 °C 12.4 °C 1018.2 hPa NE 16.7 km/h 16.7 km/h 32 % 0.0 mm 652.0 W/m2 CLR
17:34 31.2 °C 12.6 °C 1018.2 hPa Calm     32 % 0.0 mm 638.0 W/m2 CLR
17:39 31.3 °C 12.6 °C 1018.2 hPa ENE 7.4 km/h 7.4 km/h 32 % 0.0 mm 628.0 W/m2 CLR
17:44 31.1 °C 12.4 °C 1018.2 hPa ENE 5.6 km/h 5.6 km/h 32 % 0.0 mm 610.0 W/m2 CLR
17:49 31.3 °C 12.7 °C 1017.8 hPa ENE 5.6 km/h 5.6 km/h 32 % 0.0 mm 598.0 W/m2 CLR
17:54 31.3 °C 12.7 °C 1017.8 hPa NE 7.4 km/h   32 % 0.0 mm 585.0 W/m2 CLR
17:59 31.5 °C 12.3 °C 1017.8 hPa NE 11.1 km/h 11.1 km/h 31 % 0.0 mm 568.0 W/m2 CLR
18:04 31.6 °C 12.4 °C 1017.8 hPa NE 3.7 km/h 3.7 km/h 31 % 0.0 mm 555.0 W/m2 CLR
18:09 31.8 °C 12.6 °C 1017.8 hPa Calm     31 % 0.0 mm 541.0 W/m2 CLR
18:14 31.9 °C 12.7 °C 1017.8 hPa Calm     31 % 0.0 mm 526.0 W/m2 CLR
18:19 31.9 °C 12.7 °C 1017.5 hPa NE 8.0 km/h 8.0 km/h 31 % 0.0 mm 510.0 W/m2 CLR
18:24 31.9 °C 12.7 °C 1017.5 hPa ENE 4.8 km/h 4.8 km/h 31 % 0.0 mm 496.0 W/m2 CLR
18:29 31.6 °C 12.4 °C 1017.5 hPa Calm     31 % 0.0 mm 482.0 W/m2 CLR
18:34 31.6 °C 12.4 °C 1017.5 hPa NE 13.0 km/h 13.0 km/h 31 % 0.0 mm 469.0 W/m2 CLR
18:39 31.6 °C 12.4 °C 1017.5 hPa NE 3.7 km/h   31 % 0.0 mm 450.0 W/m2 CLR
18:44 31.6 °C 12.4 °C 1017.5 hPa NNE 14.5 km/h 14.5 km/h 31 % 0.0 mm 434.0 W/m2 CLR
18:49 31.6 °C 12.4 °C 1017.5 hPa NE 3.7 km/h   31 % 0.0 mm 422.0 W/m2 CLR
18:54 31.6 °C 12.4 °C 1017.5 hPa Calm     31 % 0.0 mm 406.0 W/m2 CLR
18:59 31.7 °C 12.5 °C 1017.5 hPa NE 13.0 km/h 13.0 km/h 31 % 0.0 mm 390.0 W/m2 CLR
19:04 31.7 °C 12.0 °C 1017.5 hPa NNE 9.7 km/h 9.7 km/h 30 % 0.0 mm 374.0 W/m2 CLR
19:09 31.6 °C 11.9 °C 1017.5 hPa ENE 6.4 km/h 6.4 km/h 30 % 0.0 mm 359.0 W/m2 CLR
19:14 31.7 °C 11.9 °C 1017.5 hPa NE 5.6 km/h 5.6 km/h 30 % 0.0 mm 345.0 W/m2 CLR
19:19 31.7 °C 11.9 °C 1017.5 hPa Calm   0.3 km/h 30 % 0.0 mm 329.0 W/m2 CLR
19:24 31.3 °C 11.7 °C 1017.5 hPa SE 4.8 km/h   30 % 0.0 mm 311.0 W/m2 CLR
19:29 31.1 °C 11.5 °C 1017.5 hPa Calm     30 % 0.0 mm 297.0 W/m2 CLR
19:34 31.1 °C 12.4 °C 1017.5 hPa East 5.6 km/h 5.6 km/h 32 % 0.0 mm 281.0 W/m2 CLR
19:39 30.9 °C 14.1 °C 1017.5 hPa ESE 7.4 km/h 7.4 km/h 36 % 0.0 mm 267.0 W/m2 CLR
19:44 30.6 °C 13.8 °C 1017.5 hPa SE 5.6 km/h 5.6 km/h 36 % 0.0 mm 250.0 W/m2 CLR
19:49 30.5 °C 13.7 °C 1017.5 hPa ESE 5.6 km/h   36 % 0.0 mm 234.0 W/m2 CLR
19:54 30.4 °C 14.1 °C 1017.2 hPa SSE 14.5 km/h 14.5 km/h 37 % 0.0 mm 218.0 W/m2 CLR
19:59 30.1 °C 14.6 °C 1017.5 hPa ESE 16.7 km/h 16.7 km/h 39 % 0.0 mm 202.0 W/m2 CLR
20:04 29.9 °C 14.8 °C 1017.5 hPa SE 11.1 km/h 11.1 km/h 40 % 0.0 mm 185.0 W/m2 CLR
20:09 29.7 °C 15.1 °C 1017.5 hPa SE 18.5 km/h 18.5 km/h 41 % 0.0 mm 167.0 W/m2 CLR
20:14 29.6 °C 15.3 °C 1017.5 hPa SE 11.1 km/h 11.1 km/h 42 % 0.0 mm 149.0 W/m2 CLR
20:20 29.4 °C 15.5 °C 1017.5 hPa East 14.8 km/h 14.8 km/h 43 % 0.0 mm 134.0 W/m2 CLR
20:25 29.2 °C 15.3 °C 1017.5 hPa SE 13.0 km/h 13.0 km/h 43 % 0.0 mm 120.0 W/m2 CLR
20:30 29.1 °C 15.2 °C 1017.5 hPa ESE 16.7 km/h 16.7 km/h 43 % 0.0 mm 102.0 W/m2 CLR
20:35 28.9 °C 15.4 °C 1017.5 hPa SE 14.5 km/h 14.5 km/h 44 % 0.0 mm 88.0 W/m2 CLR
20:40 28.8 °C 15.3 °C 1017.5 hPa SE 11.3 km/h 11.3 km/h 44 % 0.0 mm 76.0 W/m2 FEW
20:45 28.7 °C 15.6 °C 1017.5 hPa ESE 11.1 km/h 11.1 km/h 45 % 0.0 mm 63.0 W/m2 SCT
20:50 28.6 °C 15.4 °C 1017.5 hPa ESE 14.8 km/h 14.8 km/h 45 % 0.0 mm 21.0 W/m2 BKN
20:55 28.4 °C 15.7 °C 1017.5 hPa SE 6.4 km/h 6.4 km/h 46 % 0.0 mm 37.0 W/m2 BKN
21:00 28.3 °C 15.6 °C 1017.5 hPa East 13.0 km/h 13.0 km/h 46 % 0.0 mm 28.0 W/m2 BKN
21:05 28.2 °C 15.8 °C 1017.5 hPa ESE 13.0 km/h 13.0 km/h 47 % 0.0 mm 21.0 W/m2 BKN
21:10 28.1 °C 15.7 °C 1017.5 hPa ESE 9.3 km/h 9.3 km/h 47 % 0.0 mm 14.0 W/m2 BKN
21:15 27.9 °C 15.6 °C 1017.5 hPa SE 11.1 km/h 11.1 km/h 47 % 0.0 mm 12.0 W/m2 BKN
21:20 27.8 °C 15.5 °C 1017.5 hPa SE 9.3 km/h 9.3 km/h 47 % 0.0 mm 11.0 W/m2 BKN
21:25 27.7 °C 15.7 °C 1017.8 hPa SSE 7.4 km/h 7.4 km/h 48 % 0.0 mm 9.0 W/m2 BKN
21:30 27.6 °C 15.6 °C 1017.8 hPa ESE 9.3 km/h 9.3 km/h 48 % 0.0 mm 7.0 W/m2 BKN
21:35 27.4 °C 15.4 °C 1017.8 hPa SSE 11.3 km/h 11.3 km/h 48 % 0.0 mm 5.0 W/m2 OVC
21:40 27.3 °C 15.7 °C 1017.8 hPa SE 7.4 km/h 7.4 km/h 49 % 0.0 mm 0.0 W/m2 OVC
21:45 27.2 °C 15.6 °C 1017.8 hPa SE 7.4 km/h 7.4 km/h 49 % 0.0 mm 0.0 W/m2 OVC
21:50 27.1 °C 15.4 °C 1017.8 hPa Calm     49 % 0.0 mm 0.0 W/m2 CLR
21:55 26.9 °C 15.6 °C 1017.8 hPa Calm     50 % 0.0 mm 0.0 W/m2 CLR
22:00 26.7 °C 15.4 °C 1017.8 hPa Calm     50 % 0.0 mm 0.0 W/m2 CLR
22:05 26.4 °C 15.5 °C 1017.8 hPa Calm     51 % 0.0 mm 0.0 W/m2 CLR
22:10 26.2 °C 15.6 °C 1017.8 hPa Calm     52 % 0.0 mm 0.0 W/m2 CLR
22:15 26.0 °C 15.7 °C 1018.2 hPa Calm     53 % 0.0 mm 0.0 W/m2 CLR
22:20 25.8 °C 15.5 °C 1018.2 hPa Calm     53 % 0.0 mm 0.0 W/m2 CLR
22:25 25.8 °C 15.5 °C 1018.2 hPa Calm     53 % 0.0 mm 0.0 W/m2 CLR
22:30 25.7 °C 15.4 °C 1018.2 hPa Calm     53 % 0.0 mm 0.0 W/m2 CLR
22:35 25.6 °C 15.3 °C 1018.2 hPa Calm     53 % 0.0 mm 0.0 W/m2 CLR
22:40 25.4 °C 15.1 °C 1018.2 hPa Calm     53 % 0.0 mm 0.0 W/m2 CLR
22:45 25.3 °C 15.3 °C 1018.2 hPa SE 5.6 km/h 5.6 km/h 54 % 0.0 mm 0.0 W/m2 CLR
22:50 25.3 °C 15.3 °C 1018.2 hPa SSE 3.7 km/h 3.7 km/h 54 % 0.0 mm 0.0 W/m2 CLR
22:55 25.3 °C 15.3 °C 1018.2 hPa ESE 5.6 km/h 5.6 km/h 54 % 0.0 mm 0.0 W/m2 CLR
23:00 25.2 °C 15.3 °C 1018.2 hPa ESE 5.6 km/h 5.6 km/h 54 % 0.0 mm 0.0 W/m2 CLR
23:05 25.1 °C 15.1 °C 1018.2 hPa ESE 9.3 km/h 9.3 km/h 54 % 0.0 mm 0.0 W/m2 CLR
23:10 24.8 °C 15.2 °C 1018.5 hPa ESE 6.4 km/h 6.4 km/h 55 % 0.0 mm 0.0 W/m2 CLR
23:15 24.7 °C 15.3 °C 1018.5 hPa SE 7.4 km/h 7.4 km/h 56 % 0.0 mm 0.0 W/m2 CLR
23:20 24.6 °C 15.2 °C 1018.2 hPa Calm     56 % 0.0 mm 0.0 W/m2 CLR
23:25 24.5 °C 15.2 °C 1018.5 hPa Calm     56 % 0.0 mm 0.0 W/m2 CLR
23:30 24.4 °C 15.1 °C 1018.5 hPa Calm     56 % 0.0 mm 0.0 W/m2 CLR
23:35 24.2 °C 15.2 °C 1018.5 hPa Calm     57 % 0.0 mm 0.0 W/m2 CLR
23:40 24.1 °C 15.0 °C 1018.5 hPa Calm     57 % 0.0 mm 0.0 W/m2 CLR
23:46 23.7 °C 14.9 °C 1018.5 hPa Calm     58 % 0.0 mm 0.0 W/m2 CLR
23:50 23.6 °C 15.1 °C 1018.5 hPa Calm     59 % 0.0 mm 0.0 W/m2 CLR
23:55 23.6 °C 15.1 °C 1018.5 hPa Calm     59 % 0.0 mm 0.0 W/m2 CLR
Lo Temps de Massalio
Compliments of Weather Underground - 1.25 mb